Terminal Aerodrome Forecast
Issued by NWS

Home | Current Version | Previous Version | Text Only | Print | Product List | Glossary On
Versions: 1 2 3 4 5 6 7 8 9 10 11 12 13 14
000
FTUS44 KJAN 182335
TAFHKS
TAF
KHKS 182335Z 1900/1924 16003KT P6SM SCT015
     FM191000 17007KT P6SM BKN015 BKN250
     FM191300 17008KT 3SM BR BKN003 BKN250
     FM191500 17010G18KT P6SM BKN015 BKN250
     FM191900 17010G21KT P6SM BKN050=

USA.gov is the U.S. government's official web portal to all federal, state and local government web resources and services.